createdAt,value
2019-02-25T00:00:58.886Z,98576.91
2019-02-25T00:03:29.389Z,98569.63
2019-02-25T00:05:59.812Z,98571.90
2019-02-25T00:08:29.409Z,98568.59
2019-02-25T00:10:59.036Z,98560.66
2019-02-25T00:13:28.633Z,98558.72
2019-02-25T00:15:58.267Z,98562.28
2019-02-25T00:18:27.929Z,98561.17
2019-02-25T00:20:57.554Z,98566.17
2019-02-25T00:23:27.143Z,98576.35
2019-02-25T00:25:56.771Z,98570.12
2019-02-25T00:28:26.401Z,98568.67
2019-02-25T00:30:55.988Z,98573.63
2019-02-25T00:33:25.616Z,98577.67
2019-02-25T00:35:55.282Z,98580.44
2019-02-25T00:38:24.889Z,98585.93
2019-02-25T00:40:54.584Z,98581.20
2019-02-25T00:43:24.177Z,98584.60
2019-02-25T00:45:53.869Z,98588.54
2019-02-25T00:48:23.485Z,98585.81
2019-02-25T00:50:53.162Z,98587.84
2019-02-25T00:53:22.779Z,98579.86
2019-02-25T00:55:52.403Z,98571.28
2019-02-25T00:58:22.093Z,98568.30
2019-02-25T01:00:51.824Z,98563.42
2019-02-25T01:03:21.594Z,98563.42
2019-02-25T01:05:51.360Z,98554.35
2019-02-25T01:08:20.955Z,98545.97
2019-02-25T01:10:50.616Z,98551.48
2019-02-25T01:13:20.229Z,98543.75
2019-02-25T01:15:49.990Z,98552.34
2019-02-25T01:18:19.609Z,98547.34
2019-02-25T01:20:49.204Z,98543.97
2019-02-25T01:23:19.170Z,98536.95
2019-02-25T01:25:48.761Z,98543.38
2019-02-25T01:28:18.360Z,98542.00
2019-02-25T01:30:48.059Z,98542.09
2019-02-25T01:33:17.653Z,98537.39
2019-02-25T01:35:47.268Z,98540.64
2019-02-25T01:38:16.864Z,98546.08
2019-02-25T01:40:46.488Z,98537.72
2019-02-25T01:43:16.460Z,98536.07
2019-02-25T01:45:46.056Z,98534.66
2019-02-25T01:48:15.686Z,98529.00
2019-02-25T01:50:45.280Z,98522.55
2019-02-25T01:53:14.911Z,98513.97
2019-02-25T01:55:44.507Z,98516.77
2019-02-25T01:58:14.102Z,98515.88
2019-02-25T02:00:44.130Z,98514.78
2019-02-25T02:03:13.717Z,98507.28
2019-02-25T02:05:43.336Z,98495.84
2019-02-25T02:08:12.949Z,98492.34
2019-02-25T02:10:42.538Z,98493.66
2019-02-25T02:13:14.598Z,98487.73
2019-02-25T02:15:44.331Z,98492.42
2019-02-25T02:18:13.926Z,98485.45
2019-02-25T02:20:43.521Z,98484.77
2019-02-25T02:23:13.131Z,98481.39
2019-02-25T02:25:42.724Z,98484.95
2019-02-25T02:28:12.349Z,98490.10
2019-02-25T02:30:41.944Z,98477.61
2019-02-25T02:33:11.558Z,98477.83
2019-02-25T02:35:41.168Z,98478.97
2019-02-25T02:38:10.956Z,98474.94
2019-02-25T02:40:40.566Z,98471.06
2019-02-25T02:43:10.195Z,98478.73
2019-02-25T02:45:56.384Z,98467.75
2019-02-25T02:48:39.468Z,98461.75
2019-02-25T02:51:09.064Z,98469.27
2019-02-25T02:53:38.746Z,98463.44
2019-02-25T02:56:08.352Z,98459.81
2019-02-25T02:58:37.972Z,98461.23
2019-02-25T03:01:07.567Z,98463.80
2019-02-25T03:03:37.185Z,98461.44
2019-02-25T03:06:06.799Z,98461.16
2019-02-25T03:08:36.422Z,98463.85
2019-02-25T03:11:06.370Z,98453.95
2019-02-25T03:13:35.965Z,98455.73
2019-02-25T03:16:05.584Z,98453.50
2019-02-25T03:18:35.206Z,98457.24
2019-02-25T03:21:04.794Z,98445.86
2019-02-25T03:23:34.420Z,98451.95
2019-02-25T03:26:04.008Z,98452.13
2019-02-25T03:28:33.591Z,98440.59
2019-02-25T03:31:03.217Z,98445.49
2019-02-25T03:33:32.831Z,98443.36
2019-02-25T03:36:02.419Z,98444.09
2019-02-25T03:38:32.040Z,98449.59
2019-02-25T03:41:01.728Z,98447.10
2019-02-25T03:43:31.315Z,98445.59
2019-02-25T03:46:00.998Z,98451.38
2019-02-25T03:48:30.620Z,98446.83
2019-02-25T03:51:00.212Z,98451.20
2019-02-25T03:53:29.831Z,98450.28
2019-02-25T03:55:59.669Z,98449.85
2019-02-25T03:58:29.420Z,98450.38
2019-02-25T04:00:59.322Z,98452.92
2019-02-25T04:03:28.945Z,98450.27
2019-02-25T04:05:58.868Z,98449.62
2019-02-25T04:08:28.696Z,98446.97
2019-02-25T04:10:58.284Z,98437.17
2019-02-25T04:13:27.934Z,98443.78
2019-02-25T04:15:57.581Z,98441.24
2019-02-25T04:18:27.197Z,98440.97
2019-02-25T04:20:56.859Z,98442.37
2019-02-25T04:23:27.354Z,98448.12
2019-02-25T04:25:56.930Z,98441.33
2019-02-25T04:28:26.559Z,98440.67
2019-02-25T04:30:56.146Z,98440.59
2019-02-25T04:33:25.741Z,98440.06
2019-02-25T04:35:55.358Z,98438.80
2019-02-25T04:38:24.980Z,98445.92
2019-02-25T04:40:54.629Z,98447.61
2019-02-25T04:43:24.191Z,98447.41
2019-02-25T04:45:53.799Z,98444.97
2019-02-25T04:48:23.388Z,98449.50
2019-02-25T04:50:52.996Z,98451.36
2019-02-25T04:53:22.592Z,98451.16
2019-02-25T04:55:52.247Z,98447.29
2019-02-25T04:58:21.898Z,98446.66
2019-02-25T05:00:51.488Z,98451.33
2019-02-25T05:03:21.113Z,98451.03
2019-02-25T05:05:50.722Z,98458.60
2019-02-25T05:08:20.310Z,98459.02
2019-02-25T05:10:49.916Z,98449.66
2019-02-25T05:13:21.208Z,98453.98
2019-02-25T05:15:51.657Z,98457.66
2019-02-25T05:18:21.247Z,98454.37
2019-02-25T05:20:50.940Z,98452.17
2019-02-25T05:23:20.532Z,98451.06
2019-02-25T05:25:50.419Z,98454.34
2019-02-25T05:28:20.009Z,98457.56
2019-02-25T05:30:49.706Z,98447.73
2019-02-25T05:33:19.327Z,98448.20
2019-02-25T05:35:48.917Z,98445.43
2019-02-25T05:38:18.512Z,98446.62
2019-02-25T05:40:48.135Z,98443.80
2019-02-25T05:43:17.748Z,98444.03
2019-02-25T05:45:47.338Z,98442.01
2019-02-25T05:48:16.956Z,98443.42
2019-02-25T05:50:46.545Z,98453.01
2019-02-25T05:53:16.160Z,98458.46
2019-02-25T05:55:45.785Z,98456.95
2019-02-25T05:58:15.380Z,98449.55
2019-02-25T06:00:46.579Z,98450.20
2019-02-25T06:03:16.174Z,98446.63
2019-02-25T06:05:45.757Z,98456.36
2019-02-25T06:08:15.382Z,98464.36
2019-02-25T06:10:45.002Z,98459.70
2019-02-25T06:13:14.617Z,98456.33
2019-02-25T06:15:45.094Z,98465.48
2019-02-25T06:18:14.701Z,98471.65
2019-02-25T06:20:44.547Z,98466.23
2019-02-25T06:23:14.135Z,98482.81
2019-02-25T06:25:43.761Z,98477.25
2019-02-25T06:28:13.380Z,98477.25
2019-02-25T06:30:43.712Z,98470.36
2019-02-25T06:33:13.339Z,98464.74
2019-02-25T06:35:42.920Z,98475.81
2019-02-25T06:38:12.542Z,98468.25
2019-02-25T06:40:42.164Z,98460.81
2019-02-25T06:43:11.778Z,98461.90
2019-02-25T06:45:41.362Z,98463.14
2019-02-25T06:48:11.658Z,98461.49
2019-02-25T06:50:41.820Z,98468.95
2019-02-25T06:53:11.410Z,98465.66
2019-02-25T06:55:41.266Z,98461.97
2019-02-25T06:58:10.944Z,98466.40
2019-02-25T07:00:41.112Z,98462.52
2019-02-25T07:03:10.734Z,98469.16
2019-02-25T07:05:53.740Z,98462.72
2019-02-25T07:08:27.882Z,98464.18
2019-02-25T07:11:05.741Z,98468.05
2019-02-25T07:13:35.214Z,98469.20
2019-02-25T07:16:22.550Z,98467.00
2019-02-25T07:19:11.026Z,98466.20
2019-02-25T07:21:58.351Z,98457.52
2019-02-25T07:24:32.140Z,98463.72
2019-02-25T07:27:03.417Z,98476.75
2019-02-25T07:29:37.796Z,98471.09
2019-02-25T07:32:22.098Z,98471.02
2019-02-25T07:34:56.103Z,98471.08
2019-02-25T07:37:27.648Z,98477.39
2019-02-25T07:39:58.882Z,98461.63
2019-02-25T07:42:32.856Z,98472.22
2019-02-25T07:45:20.240Z,98471.88
2019-02-25T07:47:51.493Z,98485.64
2019-02-25T07:50:27.227Z,98491.20
2019-02-25T07:53:14.952Z,98476.64
2019-02-25T07:55:44.310Z,98488.68
2019-02-25T07:58:18.601Z,98492.45
2019-02-25T08:00:49.857Z,98498.98
2019-02-25T08:03:33.016Z,98496.53
2019-02-25T08:06:02.378Z,98500.07
2019-02-25T08:08:31.743Z,98504.64
2019-02-25T08:11:03.840Z,98515.74
2019-02-25T08:13:35.552Z,98519.38
2019-02-25T08:16:07.617Z,98518.62
2019-02-25T08:18:38.852Z,98522.08
2019-02-25T08:21:26.680Z,98529.11
2019-02-25T08:23:57.912Z,98521.56
2019-02-25T08:26:29.166Z,98515.41
2019-02-25T08:28:58.599Z,98524.72
2019-02-25T08:31:32.809Z,98521.25
2019-02-25T08:34:22.424Z,98523.89
2019-02-25T08:37:12.365Z,98525.52
2019-02-25T08:39:46.080Z,98519.20
2019-02-25T08:42:25.312Z,98522.33
2019-02-25T08:45:02.406Z,98520.37
2019-02-25T08:47:33.665Z,98518.11
2019-02-25T08:50:03.432Z,98524.67
2019-02-25T08:52:33.554Z,98520.81
2019-02-25T08:55:03.321Z,98520.27
2019-02-25T08:57:33.143Z,98522.16
2019-02-25T09:00:03.109Z,98511.72
2019-02-25T09:02:32.801Z,98511.51
2019-02-25T09:05:02.396Z,98510.92
2019-02-25T09:07:32.006Z,98513.18
2019-02-25T09:10:01.861Z,98507.00
2019-02-25T09:12:31.575Z,98507.17
2019-02-25T09:15:01.212Z,98503.39
2019-02-25T09:17:30.803Z,98504.17
2019-02-25T09:20:00.397Z,98501.28
2019-02-25T09:22:30.023Z,98504.46
2019-02-25T09:25:00.420Z,98511.25
2019-02-25T09:27:30.052Z,98511.33
2019-02-25T09:29:59.650Z,98512.19
2019-02-25T09:32:29.838Z,98515.86
2019-02-25T09:34:59.719Z,98508.53
2019-02-25T09:37:29.485Z,98507.27
2019-02-25T09:39:59.131Z,98507.08
2019-02-25T09:42:28.913Z,98509.75
2019-02-25T09:44:59.092Z,98512.16
2019-02-25T09:47:28.716Z,98508.73
2019-02-25T09:49:58.344Z,98512.20
2019-02-25T09:52:29.815Z,98505.18
2019-02-25T09:54:59.457Z,98513.48
2019-02-25T09:57:29.125Z,98515.08
2019-02-25T09:59:58.760Z,98512.10
2019-02-25T10:02:28.358Z,98520.26
2019-02-25T10:04:59.734Z,98510.66
2019-02-25T10:07:29.504Z,98511.45
2019-02-25T10:09:59.105Z,98511.44
2019-02-25T10:12:28.730Z,98507.17
2019-02-25T10:14:58.330Z,98512.72
2019-02-25T10:17:27.965Z,98517.02
2019-02-25T10:19:58.053Z,98508.81
2019-02-25T10:22:32.779Z,98512.78
2019-02-25T10:25:02.211Z,98503.55
2019-02-25T10:27:31.843Z,98506.55
2019-02-25T10:30:01.463Z,98508.00
2019-02-25T10:32:31.066Z,98509.45
2019-02-25T10:35:00.787Z,98508.77
2019-02-25T10:37:30.387Z,98497.40
2019-02-25T10:40:00.761Z,98499.94
2019-02-25T10:42:31.551Z,98499.30
2019-02-25T10:45:02.706Z,98496.75
2019-02-25T10:47:33.615Z,98491.23
2019-02-25T10:50:05.359Z,98486.27
2019-02-25T10:52:35.633Z,98498.93
2019-02-25T10:55:09.889Z,98493.20
2019-02-25T10:57:39.593Z,98481.21
2019-02-25T11:00:21.328Z,98480.80
2019-02-25T11:02:53.385Z,98479.88
2019-02-25T11:05:23.692Z,98483.35
2019-02-25T11:07:54.203Z,98475.00
2019-02-25T11:10:28.673Z,98478.72
2019-02-25T11:12:59.938Z,98469.85
2019-02-25T11:15:31.056Z,98469.67
2019-02-25T11:18:00.755Z,98468.68
2019-02-25T11:20:31.750Z,98467.69
2019-02-25T11:23:03.386Z,98463.30
2019-02-25T11:25:33.238Z,98460.83
2019-02-25T11:28:04.950Z,98457.12
2019-02-25T11:30:34.254Z,98455.59
2019-02-25T11:33:03.950Z,98443.81
2019-02-25T11:35:34.367Z,98446.98
2019-02-25T11:38:05.267Z,98446.98
2019-02-25T11:40:36.522Z,98443.39
2019-02-25T11:43:08.257Z,98444.55
2019-02-25T11:45:38.334Z,98435.27
2019-02-25T11:48:08.066Z,98437.61
2019-02-25T11:50:37.773Z,98431.91
2019-02-25T11:56:08.237Z,98425.66
2019-02-25T11:58:38.432Z,98413.86
2019-02-25T12:01:08.888Z,98419.45
2019-02-25T12:03:38.489Z,98417.47
2019-02-25T12:06:08.182Z,98407.44
2019-02-25T12:08:37.811Z,98402.09
2019-02-25T12:11:08.733Z,98399.33
2019-02-25T12:13:38.410Z,98397.84
2019-02-25T12:16:08.040Z,98391.76
2019-02-25T12:18:37.666Z,98394.00
2019-02-25T12:21:07.597Z,98392.23
2019-02-25T12:23:37.226Z,98390.50
2019-02-25T12:26:06.852Z,98384.97
2019-02-25T12:28:36.686Z,98373.02
2019-02-25T12:31:06.384Z,98369.52
2019-02-25T12:33:35.986Z,98370.21
2019-02-25T12:36:06.591Z,98365.84
2019-02-25T12:38:36.954Z,98361.08
2019-02-25T12:41:06.721Z,98359.76
2019-02-25T12:43:36.341Z,98364.02
2019-02-25T12:46:05.940Z,98356.58
2019-02-25T12:48:35.572Z,98357.11
2019-02-25T12:51:05.428Z,98357.32
2019-02-25T12:53:35.056Z,98349.49
2019-02-25T12:56:04.716Z,98349.27
2019-02-25T12:58:34.307Z,98349.54
2019-02-25T13:01:03.976Z,98342.91
2019-02-25T13:03:33.673Z,98341.44
2019-02-25T13:06:03.297Z,98341.81
2019-02-25T13:08:32.891Z,98330.18
2019-02-25T13:11:02.751Z,98326.95
2019-02-25T13:13:32.383Z,98320.33
2019-02-25T13:16:02.015Z,98321.67
2019-02-25T13:18:31.614Z,98315.12
2019-02-25T13:21:01.233Z,98314.47
2019-02-25T13:23:30.865Z,98316.46
2019-02-25T13:26:07.284Z,98313.89
2019-02-25T13:28:33.557Z,98302.75
2019-02-25T13:31:05.259Z,98301.52
2019-02-25T13:33:34.701Z,98302.55
2019-02-25T13:36:07.380Z,98292.72
2019-02-25T13:38:36.978Z,98289.67
2019-02-25T13:41:07.171Z,98289.02
2019-02-25T13:43:36.791Z,98285.37
2019-02-25T13:46:06.935Z,98292.19
2019-02-25T13:48:36.534Z,98289.23
2019-02-25T13:51:06.251Z,98289.23
2019-02-25T13:53:35.849Z,98290.73
2019-02-25T13:56:05.930Z,98288.01
2019-02-25T13:58:35.585Z,98283.64
2019-02-25T14:01:06.066Z,98284.97
2019-02-25T14:03:35.673Z,98284.50
2019-02-25T14:06:05.463Z,98284.02
2019-02-25T14:08:35.065Z,98283.33
2019-02-25T14:11:04.750Z,98276.74
2019-02-25T14:13:34.520Z,98273.08
2019-02-25T14:16:04.289Z,98272.94
2019-02-25T14:18:34.539Z,98272.28
2019-02-25T14:21:04.815Z,98278.67
2019-02-25T14:23:38.239Z,98281.19
2019-02-25T14:26:07.743Z,98275.98
2019-02-25T14:28:37.371Z,98275.98
2019-02-25T14:31:07.507Z,98285.52
2019-02-25T14:33:37.192Z,98281.36
2019-02-25T14:36:07.472Z,98281.86
2019-02-25T14:38:37.414Z,98283.87
2019-02-25T14:41:08.796Z,98279.02
2019-02-25T14:43:45.567Z,98283.02
2019-02-25T14:46:11.889Z,98281.85
2019-02-25T14:48:41.378Z,98290.59
2019-02-25T14:51:11.279Z,98295.62
2019-02-25T14:53:42.298Z,98301.14
2019-02-25T14:56:12.409Z,98299.80
2019-02-25T14:58:43.047Z,98308.35
2019-02-25T15:01:13.367Z,98308.62
2019-02-25T15:03:42.994Z,98308.02
2019-02-25T15:06:13.384Z,98311.19
2019-02-25T15:08:43.014Z,98314.02
2019-02-25T15:11:13.131Z,98308.52
2019-02-25T15:13:43.100Z,98315.23
2019-02-25T15:16:12.857Z,98313.61
2019-02-25T15:18:42.456Z,98312.89
2019-02-25T15:21:15.240Z,98309.91
2019-02-25T15:23:44.418Z,98313.66
2019-02-25T15:26:15.002Z,98312.89
2019-02-25T15:28:45.216Z,98311.09
2019-02-25T15:31:16.464Z,98314.16
2019-02-25T15:33:46.332Z,98316.91
2019-02-25T15:36:17.792Z,98315.69
2019-02-25T15:38:47.297Z,98315.80
2019-02-25T15:41:17.129Z,98306.40
2019-02-25T15:43:46.725Z,98310.24
2019-02-25T15:46:17.125Z,98309.72
2019-02-25T15:48:47.914Z,98312.38
2019-02-25T15:51:18.494Z,98306.94
2019-02-25T15:53:48.949Z,98303.98
2019-02-25T15:56:19.875Z,98308.25
2019-02-25T15:58:50.112Z,98308.13
2019-02-25T16:01:19.957Z,98298.88
2019-02-25T16:03:49.552Z,98290.97
2019-02-25T16:06:19.507Z,98288.56
2019-02-25T16:08:52.094Z,98284.27
2019-02-25T16:11:25.674Z,98272.70
2019-02-25T16:13:55.359Z,98274.56
2019-02-25T16:16:24.993Z,98273.34
2019-02-25T16:18:54.901Z,98274.62
2019-02-25T16:21:26.637Z,98278.91
2019-02-25T16:23:59.292Z,98274.45
2019-02-25T16:26:27.342Z,98278.11
2019-02-25T16:28:58.863Z,98272.14
2019-02-25T16:31:29.174Z,98279.27
2019-02-25T16:33:59.707Z,98280.64
2019-02-25T16:36:31.128Z,98280.63
2019-02-25T16:39:05.237Z,98287.75
2019-02-25T16:41:34.329Z,98291.52
2019-02-25T16:44:04.585Z,98290.56
2019-02-25T16:46:38.721Z,98295.27
2019-02-25T16:49:06.362Z,98294.69
2019-02-25T16:51:37.575Z,98300.31
2019-02-25T16:54:10.979Z,98305.97
2019-02-25T16:56:39.015Z,98305.45
2019-02-25T16:59:11.161Z,98306.95
2019-02-25T17:01:41.567Z,98306.30
2019-02-25T17:04:12.189Z,98307.09
2019-02-25T17:06:42.806Z,98323.41
2019-02-25T17:09:20.368Z,98319.78
2019-02-25T17:11:50.619Z,98325.63
2019-02-25T17:14:21.797Z,98323.17
2019-02-25T17:16:51.551Z,98328.09
2019-02-25T17:19:22.526Z,98329.78
2019-02-25T17:21:52.204Z,98330.82
2019-02-25T17:24:24.068Z,98336.72
2019-02-25T17:26:53.140Z,98339.37
2019-02-25T17:29:23.128Z,98334.45
2019-02-25T17:31:54.772Z,98330.28
2019-02-25T17:34:25.022Z,98332.72
2019-02-25T17:36:54.789Z,98329.25
2019-02-25T17:39:24.385Z,98321.78
2019-02-25T17:41:54.068Z,98319.75
2019-02-25T17:44:27.870Z,98325.91
2019-02-25T17:46:57.980Z,98319.30
2019-02-25T17:49:26.902Z,98320.27
2019-02-25T17:51:57.780Z,98312.55
2019-02-25T17:54:29.474Z,98313.64
2019-02-25T17:57:00.005Z,98306.98
2019-02-25T17:59:31.510Z,98316.87
2019-02-25T18:02:02.298Z,98303.81
2019-02-25T18:04:33.029Z,98295.29
2019-02-25T18:07:03.834Z,98295.38
2019-02-25T18:09:33.583Z,98289.24
2019-02-25T18:12:04.404Z,98284.75
2019-02-25T18:14:34.485Z,98277.02
2019-02-25T18:17:05.945Z,98274.17
2019-02-25T18:19:35.663Z,98270.58
2019-02-25T18:22:05.446Z,98277.70
2019-02-25T18:24:35.126Z,98265.88
2019-02-25T18:27:06.934Z,98274.80
2019-02-25T18:29:37.066Z,98280.77
2019-02-25T18:32:08.144Z,98266.30
2019-02-25T18:34:38.692Z,98260.78
2019-02-25T18:37:09.295Z,98255.89
2019-02-25T18:39:39.905Z,98240.47
2019-02-25T18:42:11.622Z,98243.78
2019-02-25T18:44:42.391Z,98243.67
2019-02-25T18:47:12.609Z,98238.47
2019-02-25T18:49:42.277Z,98243.52
2019-02-25T18:52:12.038Z,98241.48
2019-02-25T18:54:43.313Z,98252.20
2019-02-25T18:57:13.356Z,98254.77
2019-02-25T18:59:43.111Z,98246.33
2019-02-25T19:02:14.387Z,98245.51
2019-02-25T19:04:45.624Z,98253.33
2019-02-25T19:07:15.491Z,98249.59
2019-02-25T19:09:46.883Z,98246.11
2019-02-25T19:12:16.877Z,98241.05
2019-02-25T19:14:46.541Z,98241.91
2019-02-25T19:17:16.233Z,98231.98
2019-02-25T19:19:46.987Z,98220.47
2019-02-25T19:22:19.403Z,98227.66
2019-02-25T19:24:50.528Z,98224.80
2019-02-25T19:27:20.220Z,98228.97
2019-02-25T19:29:51.194Z,98219.11
2019-02-25T19:32:22.930Z,98215.15
2019-02-25T19:34:54.041Z,98223.58
2019-02-25T19:37:28.844Z,98214.23
2019-02-25T19:39:55.951Z,98219.33
2019-02-25T19:42:26.963Z,98222.88
2019-02-25T19:44:58.548Z,98222.63
2019-02-25T19:47:28.362Z,98228.88
2019-02-25T19:49:59.581Z,98229.94
2019-02-25T19:52:32.747Z,98234.13
2019-02-25T19:55:01.476Z,98237.17
2019-02-25T19:57:32.742Z,98243.41
2019-02-25T20:00:03.228Z,98247.81
2019-02-25T20:02:34.843Z,98234.31
2019-02-25T20:05:09.573Z,98246.11
2019-02-25T20:07:36.564Z,98243.64
2019-02-25T20:10:13.681Z,98245.32
2019-02-25T20:12:43.809Z,98226.70
2019-02-25T20:15:25.249Z,98216.11
2019-02-25T20:17:55.777Z,98218.85
2019-02-25T20:20:27.172Z,98214.85
2019-02-25T20:22:57.921Z,98207.94
2019-02-25T20:25:28.764Z,98207.75
2019-02-25T20:28:00.317Z,98203.52
2019-02-25T20:30:30.544Z,98211.06
2019-02-25T20:33:01.260Z,98214.75
2019-02-25T20:35:31.569Z,98208.74
2019-02-25T20:38:03.229Z,98206.34
2019-02-25T20:40:33.113Z,98206.33
2019-02-25T20:43:03.372Z,98198.97
2019-02-25T20:45:37.410Z,98204.55
2019-02-25T20:48:07.072Z,98195.48
2019-02-25T20:50:36.696Z,98191.33
2019-02-25T20:53:08.512Z,98185.34
2019-02-25T20:55:37.774Z,98176.88
2019-02-25T20:58:07.790Z,98180.55
2019-02-25T21:00:41.367Z,98174.91
2019-02-25T21:03:12.092Z,98179.06
2019-02-25T21:05:40.189Z,98177.42
2019-02-25T21:08:09.874Z,98174.02
2019-02-25T21:10:39.468Z,98167.02
2019-02-25T21:13:09.088Z,98165.56
2019-02-25T21:15:40.645Z,98161.45
2019-02-25T21:18:10.099Z,98149.97
2019-02-25T21:20:39.961Z,98159.22
2019-02-25T21:23:12.004Z,98156.73
2019-02-25T21:25:40.900Z,98164.62
2019-02-25T21:28:11.349Z,98164.20
2019-02-25T21:30:43.538Z,98157.77
2019-02-25T21:33:15.357Z,98153.77
2019-02-25T21:35:43.898Z,98145.09
2019-02-25T21:38:13.502Z,98147.44
2019-02-25T21:40:43.951Z,98141.70
2019-02-25T21:43:16.306Z,98142.43
2019-02-25T21:45:48.014Z,98144.06
2019-02-25T21:48:17.098Z,98138.70
2019-02-25T21:50:46.716Z,98134.34
2019-02-25T21:53:18.305Z,98130.41
2019-02-25T21:55:47.651Z,98133.58
2019-02-25T21:58:18.924Z,98128.03
2019-02-25T22:00:48.605Z,98127.22
2019-02-25T22:03:19.489Z,98116.65
2019-02-25T22:05:51.751Z,98119.61
2019-02-25T22:08:24.137Z,98105.08
2019-02-25T22:10:52.207Z,98112.55
2019-02-25T22:13:21.833Z,98110.14
2019-02-25T22:15:51.502Z,98108.69
2019-02-25T22:18:21.121Z,98102.99
2019-02-25T22:20:51.429Z,98111.69
2019-02-25T22:23:22.230Z,98110.76
2019-02-25T22:25:52.466Z,98121.70
2019-02-25T22:28:22.093Z,98122.31
2019-02-25T22:30:52.304Z,98118.05
2019-02-25T22:33:27.720Z,98127.90
2019-02-25T22:35:54.519Z,98111.93
2019-02-25T22:38:24.113Z,98118.39
2019-02-25T22:40:55.499Z,98119.20
2019-02-25T22:43:25.521Z,98126.83
2019-02-25T22:45:58.094Z,98117.00
2019-02-25T22:48:26.455Z,98119.40
2019-02-25T22:50:57.776Z,98120.80
2019-02-25T22:53:27.395Z,98107.84
2019-02-25T22:55:57.014Z,98115.23
2019-02-25T22:58:27.956Z,98119.83
2019-02-25T23:01:02.296Z,98123.58
2019-02-25T23:03:32.270Z,98130.70
2019-02-25T23:06:02.026Z,98135.13
2019-02-25T23:08:31.649Z,98134.66
2019-02-25T23:11:01.272Z,98139.00
2019-02-25T23:13:31.998Z,98140.13
2019-02-25T23:16:01.734Z,98150.05
2019-02-25T23:18:31.363Z,98151.16
2019-02-25T23:21:03.015Z,98135.94
2019-02-25T23:23:33.387Z,98146.72
2019-02-25T23:26:03.647Z,98151.55
2019-02-25T23:28:33.277Z,98154.88
2019-02-25T23:31:02.879Z,98153.86
2019-02-25T23:33:32.473Z,98152.34
2019-02-25T23:36:02.100Z,98163.63
2019-02-25T23:38:31.691Z,98163.36
2019-02-25T23:41:03.635Z,98162.73
2019-02-25T23:43:36.150Z,98164.17
2019-02-25T23:46:04.584Z,98161.17
2019-02-25T23:48:36.355Z,98172.41
2019-02-25T23:51:06.709Z,98158.31
2019-02-25T23:53:36.311Z,98161.11
2019-02-25T23:56:06.070Z,98152.78
2019-02-25T23:58:38.326Z,98154.75
